MST,Max TemperatureF,Mean TemperatureF,Min TemperatureF,Max Dew PointF,MeanDew PointF,Min DewpointF,Max Humidity, Mean Humidity, Min Humidity, Max Sea Level PressureIn, Mean Sea Level PressureIn, Min Sea Level PressureIn, Max VisibilityMiles, Mean VisibilityMiles, Min VisibilityMiles, Max Wind SpeedMPH, Mean Wind SpeedMPH, Max Gust SpeedMPH,PrecipitationIn, CloudCover, Events, WindDirDegrees
2012-12-1,75,59,41,22,18,14,40,22,10,29.97,29.87,29.80,10,10,10,,,,0.00,0,,-1
2012-12-2,75,55,35,22,16,10,48,27,9,30.00,29.89,29.74,10,10,10,,,,0.00,0,,-1
2012-12-3,71,60,43,27,23,15,47,25,16,30.12,29.85,29.68,10,10,4,21,9,18,0.00,1,,58
2012-12-4,60,48,36,29,25,21,55,44,28,30.35,30.25,30.13,10,10,10,10,6,,0.00,0,,254
2012-12-5,72,56,41,30,24,19,62,35,15,30.18,29.98,29.78,10,10,10,22,10,18,0.00,0,,233
2012-12-6,66,55,41,31,25,18,55,32,21,29.86,29.79,29.69,10,10,10,23,12,30,0.00,0,,32
2012-12-7,68,49,30,28,23,17,59,41,20,29.88,29.81,29.68,10,10,10,15,7,16,0.00,0,,328
2012-12-8,68,48,28,26,20,14,69,39,13,29.90,29.75,29.60,10,10,10,31,10,40,0.00,0,,276
2012-12-9,51,35,16,27,17,12,86,62,24,30.30,30.08,29.64,10,7,1,30,16,43,0.01,4,Snow,27
2012-12-10,37,22,7,22,14,3,84,71,50,30.24,30.10,29.97,10,10,10,10,5,,0.00,0,,264
2012-12-11,44,32,21,17,15,11,74,52,28,30.13,30.06,30.00,10,10,10,17,6,,0.00,0,,257
2012-12-12,62,46,30,16,13,11,50,30,15,29.99,29.95,29.88,10,10,10,26,15,34,0.00,0,,239
2012-12-13,68,48,28,20,15,12,49,30,13,30.05,29.97,29.88,10,10,10,22,10,29,0.00,0,,240
2012-12-14,51,46,41,42,35,22,86,65,43,29.87,29.71,29.55,10,10,2,34,11,41,0.13,4,Rain,234
2012-12-15,57,48,37,29,25,22,68,45,28,29.84,29.75,29.70,10,10,6,33,21,44,0.00,0,,256
2012-12-16,52,44,34,30,19,14,62,39,22,29.87,29.75,29.65,10,9,2,36,21,47,0.00,1,,263
2012-12-17,61,46,32,25,19,16,54,39,20,29.88,29.80,29.70,10,10,10,28,13,34,0.00,0,,257
2012-12-18,61,52,42,26,23,18,51,38,20,29.79,29.70,29.62,10,10,10,26,14,37,0.00,0,,249
2012-12-19,62,44,26,30,18,3,50,33,19,30.21,29.64,29.43,10,5,0,46,23,60,0.00,4,Rain,279
2012-12-20,53,34,15,11,1,-11,57,31,7,30.44,30.35,30.24,10,10,10,13,8,,0.00,0,,252
2012-12-21,64,44,24,6,-4,-21,40,19,4,30.35,30.22,30.07,10,10,10,21,8,,0.00,0,,238
2012-12-22,63,44,26,8,2,-2,32,20,7,30.06,29.98,29.87,10,10,10,17,10,17,0.00,0,,265
2012-12-23,69,50,30,17,7,0,42,23,6,29.99,29.90,29.80,10,10,10,24,12,33,0.00,0,,291
2012-12-24,62,43,24,28,12,3,48,30,15,29.94,29.74,29.51,10,10,10,25,9,32,0.00,1,,229
2012-12-25,39,26,12,19,14,6,86,72,45,30.33,30.00,29.63,10,6,2,34,23,40,0.00,5,Snow,43
2012-12-26,43,28,12,17,12,6,77,56,35,30.27,30.01,29.77,10,10,6,24,9,32,0.00,0,,197
2012-12-27,53,38,24,22,16,10,75,48,18,29.88,29.75,29.62,10,10,10,21,14,28,0.00,1,,272
2012-12-28,37,27,17,17,14,10,81,66,41,30.24,30.04,29.88,10,9,6,10,5,,0.00,2,,20
2012-12-29,48,29,10,16,10,5,77,49,22,30.40,30.29,30.17,10,10,10,17,6,20,0.00,0,,239
2012-12-30,45,39,33,30,18,12,87,49,30,30.13,30.01,29.92,10,8,2,20,12,26,0.07,4,Rain-Snow,213
2012-12-31,34,30,25,31,27,18,92,84,71,30.13,29.92,29.84,10,5,1,13,6,,0.08,8,Rain-Snow,74